sensor_id;sensor_type;location;lat;lon;timestamp;P1;durP1;ratioP1;P2;durP2;ratioP2
938;SDS011;456;53.584;9.968;2023-04-01T00:01:54;2.50;;;1.80;;
938;SDS011;456;53.584;9.968;2023-04-01T00:04:20;2.00;;;1.70;;
938;SDS011;456;53.584;9.968;2023-04-01T00:06:46;2.00;;;1.70;;
938;SDS011;456;53.584;9.968;2023-04-01T00:09:12;1.77;;;1.43;;
938;SDS011;456;53.584;9.968;2023-04-01T00:11:38;1.87;;;1.77;;
938;SDS011;456;53.584;9.968;2023-04-01T00:14:04;2.23;;;1.30;;
938;SDS011;456;53.584;9.968;2023-04-01T00:16:30;2.23;;;1.53;;
938;SDS011;456;53.584;9.968;2023-04-01T00:18:56;3.27;;;1.67;;
938;SDS011;456;53.584;9.968;2023-04-01T00:21:22;2.63;;;2.23;;
938;SDS011;456;53.584;9.968;2023-04-01T00:23:51;2.43;;;2.00;;
938;SDS011;456;53.584;9.968;2023-04-01T00:26:17;1.97;;;1.77;;
938;SDS011;456;53.584;9.968;2023-04-01T00:28:45;2.23;;;1.47;;
938;SDS011;456;53.584;9.968;2023-04-01T00:31:11;2.10;;;1.67;;
938;SDS011;456;53.584;9.968;2023-04-01T00:33:37;4.07;;;1.33;;
938;SDS011;456;53.584;9.968;2023-04-01T00:38:37;1.50;;;1.40;;
938;SDS011;456;53.584;9.968;2023-04-01T00:41:03;1.83;;;1.40;;
938;SDS011;456;53.584;9.968;2023-04-01T00:43:30;4.50;;;1.77;;
938;SDS011;456;53.584;9.968;2023-04-01T00:45:56;1.40;;;1.20;;
938;SDS011;456;53.584;9.968;2023-04-01T00:48:23;1.67;;;1.57;;
938;SDS011;456;53.584;9.968;2023-04-01T00:51:07;5.27;;;1.40;;
938;SDS011;456;53.584;9.968;2023-04-01T00:53:40;1.93;;;1.57;;
938;SDS011;456;53.584;9.968;2023-04-01T00:58:37;5.20;;;1.70;;
938;SDS011;456;53.584;9.968;2023-04-01T01:01:06;2.17;;;2.03;;
938;SDS011;456;53.584;9.968;2023-04-01T01:03:33;2.33;;;1.73;;
938;SDS011;456;53.584;9.968;2023-04-01T01:06:15;1.40;;;1.30;;
938;SDS011;456;53.584;9.968;2023-04-01T01:11:25;2.33;;;1.90;;
938;SDS011;456;53.584;9.968;2023-04-01T01:17:02;2.07;;;1.90;;
938;SDS011;456;53.584;9.968;2023-04-01T01:19:57;1.93;;;1.63;;
938;SDS011;456;53.584;9.968;2023-04-01T01:37:03;2.10;;;1.70;;
938;SDS011;456;53.584;9.968;2023-04-01T01:39:34;2.97;;;1.50;;
938;SDS011;456;53.584;9.968;2023-04-01T01:42:03;1.97;;;1.63;;
938;SDS011;456;53.584;9.968;2023-04-01T01:44:32;3.47;;;1.30;;
938;SDS011;456;53.584;9.968;2023-04-01T01:46:59;2.37;;;1.40;;
938;SDS011;456;53.584;9.968;2023-04-01T01:49:26;1.80;;;1.50;;
938;SDS011;456;53.584;9.968;2023-04-01T01:51:55;1.50;;;1.40;;
938;SDS011;456;53.584;9.968;2023-04-01T01:54:21;1.30;;;1.20;;
938;SDS011;456;53.584;9.968;2023-04-01T01:56:47;1.60;;;1.40;;
938;SDS011;456;53.584;9.968;2023-04-01T01:59:16;1.83;;;1.53;;
938;SDS011;456;53.584;9.968;2023-04-01T02:01:46;1.83;;;1.60;;
938;SDS011;456;53.584;9.968;2023-04-01T02:04:15;1.77;;;1.10;;
938;SDS011;456;53.584;9.968;2023-04-01T02:06:45;1.83;;;1.23;;
938;SDS011;456;53.584;9.968;2023-04-01T02:09:17;2.13;;;1.97;;
938;SDS011;456;53.584;9.968;2023-04-01T02:11:56;1.20;;;0.93;;
938;SDS011;456;53.584;9.968;2023-04-01T02:14:28;2.20;;;1.50;;
938;SDS011;456;53.584;9.968;2023-04-01T02:17:03;1.40;;;1.30;;
938;SDS011;456;53.584;9.968;2023-04-01T02:19:34;1.53;;;1.23;;
938;SDS011;456;53.584;9.968;2023-04-01T02:22:14;1.77;;;1.30;;
938;SDS011;456;53.584;9.968;2023-04-01T02:24:42;1.93;;;1.50;;
938;SDS011;456;53.584;9.968;2023-04-01T02:27:10;1.60;;;1.50;;
938;SDS011;456;53.584;9.968;2023-04-01T02:29:36;1.70;;;1.20;;
938;SDS011;456;53.584;9.968;2023-04-01T02:32:01;1.53;;;1.43;;
938;SDS011;456;53.584;9.968;2023-04-01T02:34:29;2.47;;;1.53;;
938;SDS011;456;53.584;9.968;2023-04-01T02:36:55;1.73;;;1.33;;
938;SDS011;456;53.584;9.968;2023-04-01T02:39:22;2.03;;;1.70;;
938;SDS011;456;53.584;9.968;2023-04-01T02:41:48;1.70;;;1.60;;
938;SDS011;456;53.584;9.968;2023-04-01T02:44:14;1.70;;;1.50;;
938;SDS011;456;53.584;9.968;2023-04-01T02:46:40;1.90;;;1.70;;
938;SDS011;456;53.584;9.968;2023-04-01T02:49:06;1.57;;;1.13;;
938;SDS011;456;53.584;9.968;2023-04-01T02:51:32;1.90;;;1.20;;
938;SDS011;456;53.584;9.968;2023-04-01T02:53:58;1.37;;;1.27;;
938;SDS011;456;53.584;9.968;2023-04-01T02:56:24;1.80;;;1.50;;
938;SDS011;456;53.584;9.968;2023-04-01T02:58:51;2.20;;;1.40;;
938;SDS011;456;53.584;9.968;2023-04-01T03:01:17;2.13;;;1.50;;
938;SDS011;456;53.584;9.968;2023-04-01T03:03:43;2.00;;;1.20;;
938;SDS011;456;53.584;9.968;2023-04-01T03:06:09;1.90;;;1.50;;
938;SDS011;456;53.584;9.968;2023-04-01T03:08:37;1.60;;;1.50;;
938;SDS011;456;53.584;9.968;2023-04-01T03:11:03;2.10;;;1.50;;
938;SDS011;456;53.584;9.968;2023-04-01T03:13:30;1.87;;;1.40;;
938;SDS011;456;53.584;9.968;2023-04-01T03:15:56;1.67;;;1.57;;
938;SDS011;456;53.584;9.968;2023-04-01T03:18:22;1.37;;;1.23;;
938;SDS011;456;53.584;9.968;2023-04-01T03:20:48;3.43;;;1.50;;
938;SDS011;456;53.584;9.968;2023-04-01T03:23:14;2.23;;;1.50;;
938;SDS011;456;53.584;9.968;2023-04-01T03:25:42;1.53;;;1.43;;
938;SDS011;456;53.584;9.968;2023-04-01T03:28:07;1.40;;;1.30;;
938;SDS011;456;53.584;9.968;2023-04-01T03:30:33;1.50;;;1.40;;
938;SDS011;456;53.584;9.968;2023-04-01T03:32:59;1.73;;;1.63;;
938;SDS011;456;53.584;9.968;2023-04-01T03:35:25;1.67;;;1.53;;
938;SDS011;456;53.584;9.968;2023-04-01T03:37:52;1.57;;;1.13;;
938;SDS011;456;53.584;9.968;2023-04-01T03:40:19;1.63;;;1.50;;
938;SDS011;456;53.584;9.968;2023-04-01T03:42:45;1.57;;;1.47;;
938;SDS011;456;53.584;9.968;2023-04-01T03:45:11;2.13;;;1.57;;
938;SDS011;456;53.584;9.968;2023-04-01T03:47:39;2.23;;;1.50;;
938;SDS011;456;53.584;9.968;2023-04-01T03:50:05;1.53;;;1.43;;
938;SDS011;456;53.584;9.968;2023-04-01T03:52:31;2.70;;;1.50;;
938;SDS011;456;53.584;9.968;2023-04-01T03:54:57;1.30;;;1.20;;
938;SDS011;456;53.584;9.968;2023-04-01T03:57:23;1.40;;;1.30;;
938;SDS011;456;53.584;9.968;2023-04-01T03:59:49;2.63;;;1.40;;
938;SDS011;456;53.584;9.968;2023-04-01T04:02:14;1.90;;;1.40;;
938;SDS011;456;53.584;9.968;2023-04-01T04:04:40;2.50;;;1.70;;
938;SDS011;456;53.584;9.968;2023-04-01T04:07:06;1.47;;;1.30;;
938;SDS011;456;53.584;9.968;2023-04-01T04:09:32;1.67;;;1.57;;
938;SDS011;456;53.584;9.968;2023-04-01T04:11:58;1.47;;;1.37;;
938;SDS011;456;53.584;9.968;2023-04-01T04:14:24;2.13;;;1.93;;
938;SDS011;456;53.584;9.968;2023-04-01T04:16:50;1.73;;;1.33;;
938;SDS011;456;53.584;9.968;2023-04-01T04:19:15;1.50;;;1.30;;
938;SDS011;456;53.584;9.968;2023-04-01T04:21:41;1.50;;;1.10;;
938;SDS011;456;53.584;9.968;2023-04-01T04:24:07;2.00;;;1.43;;
938;SDS011;456;53.584;9.968;2023-04-01T04:26:33;1.37;;;1.27;;
938;SDS011;456;53.584;9.968;2023-04-01T04:28:59;2.43;;;1.47;;
938;SDS011;456;53.584;9.968;2023-04-01T04:31:25;1.53;;;1.30;;
938;SDS011;456;53.584;9.968;2023-04-01T04:33:51;1.20;;;1.10;;
938;SDS011;456;53.584;9.968;2023-04-01T04:36:18;2.33;;;1.50;;
938;SDS011;456;53.584;9.968;2023-04-01T04:38:44;1.50;;;1.40;;
938;SDS011;456;53.584;9.968;2023-04-01T04:41:11;1.40;;;1.30;;
938;SDS011;456;53.584;9.968;2023-04-01T04:43:47;2.23;;;1.43;;
938;SDS011;456;53.584;9.968;2023-04-01T04:46:17;1.30;;;1.20;;
938;SDS011;456;53.584;9.968;2023-04-01T04:48:43;1.90;;;1.40;;
938;SDS011;456;53.584;9.968;2023-04-01T04:51:12;1.17;;;1.07;;
938;SDS011;456;53.584;9.968;2023-04-01T04:53:39;2.73;;;1.60;;
938;SDS011;456;53.584;9.968;2023-04-01T04:56:05;1.47;;;1.37;;
938;SDS011;456;53.584;9.968;2023-04-01T04:58:31;1.60;;;1.43;;
938;SDS011;456;53.584;9.968;2023-04-01T05:00:56;2.17;;;1.30;;
938;SDS011;456;53.584;9.968;2023-04-01T05:03:22;1.77;;;1.50;;
938;SDS011;456;53.584;9.968;2023-04-01T05:05:49;1.70;;;1.40;;
938;SDS011;456;53.584;9.968;2023-04-01T05:08:18;1.87;;;1.40;;
938;SDS011;456;53.584;9.968;2023-04-01T05:10:44;1.93;;;1.60;;
938;SDS011;456;53.584;9.968;2023-04-01T05:13:10;3.87;;;1.77;;
938;SDS011;456;53.584;9.968;2023-04-01T05:15:35;1.17;;;1.07;;
938;SDS011;456;53.584;9.968;2023-04-01T05:18:02;1.87;;;1.67;;
938;SDS011;456;53.584;9.968;2023-04-01T05:20:27;1.97;;;1.30;;
938;SDS011;456;53.584;9.968;2023-04-01T05:22:57;1.90;;;1.50;;
938;SDS011;456;53.584;9.968;2023-04-01T05:25:23;2.97;;;1.47;;
938;SDS011;456;53.584;9.968;2023-04-01T05:27:49;1.47;;;0.93;;
938;SDS011;456;53.584;9.968;2023-04-01T05:30:15;1.23;;;1.13;;
938;SDS011;456;53.584;9.968;2023-04-01T05:32:40;1.30;;;1.20;;
938;SDS011;456;53.584;9.968;2023-04-01T05:35:06;1.10;;;1.00;;
938;SDS011;456;53.584;9.968;2023-04-01T05:37:35;1.50;;;1.40;;
938;SDS011;456;53.584;9.968;2023-04-01T05:40:02;1.53;;;1.40;;
938;SDS011;456;53.584;9.968;2023-04-01T05:42:28;1.20;;;1.10;;
938;SDS011;456;53.584;9.968;2023-04-01T05:44:53;1.83;;;1.20;;
938;SDS011;456;53.584;9.968;2023-04-01T05:47:20;1.87;;;1.30;;
938;SDS011;456;53.584;9.968;2023-04-01T05:49:46;1.13;;;1.03;;
938;SDS011;456;53.584;9.968;2023-04-01T05:52:12;1.10;;;1.00;;
938;SDS011;456;53.584;9.968;2023-04-01T05:54:37;2.80;;;1.37;;
938;SDS011;456;53.584;9.968;2023-04-01T05:57:03;1.10;;;1.00;;
938;SDS011;456;53.584;9.968;2023-04-01T05:59:28;1.10;;;1.00;;
938;SDS011;456;53.584;9.968;2023-04-01T06:01:56;1.30;;;1.00;;
938;SDS011;456;53.584;9.968;2023-04-01T06:04:22;1.10;;;1.00;;
938;SDS011;456;53.584;9.968;2023-04-01T06:06:49;1.70;;;1.17;;
938;SDS011;456;53.584;9.968;2023-04-01T06:09:15;4.10;;;1.00;;
938;SDS011;456;53.584;9.968;2023-04-01T06:12:00;5.30;;;1.37;;
938;SDS011;456;53.584;9.968;2023-04-01T06:14:40;1.10;;;0.93;;
938;SDS011;456;53.584;9.968;2023-04-01T06:17:26;1.30;;;1.10;;
938;SDS011;456;53.584;9.968;2023-04-01T06:37:20;2.13;;;1.27;;
938;SDS011;456;53.584;9.968;2023-04-01T06:43:21;1.10;;;0.83;;
938;SDS011;456;53.584;9.968;2023-04-01T06:48:53;0.93;;;0.80;;
938;SDS011;456;53.584;9.968;2023-04-01T06:51:34;1.10;;;0.90;;
938;SDS011;456;53.584;9.968;2023-04-01T06:54:18;0.93;;;0.80;;
938;SDS011;456;53.584;9.968;2023-04-01T06:56:50;0.80;;;0.80;;
938;SDS011;456;53.584;9.968;2023-04-01T06:59:27;1.13;;;0.70;;
938;SDS011;456;53.584;9.968;2023-04-01T07:01:55;1.77;;;1.00;;
938;SDS011;456;53.584;9.968;2023-04-01T07:04:27;0.87;;;0.80;;
938;SDS011;456;53.584;9.968;2023-04-01T07:07:00;1.30;;;0.90;;
938;SDS011;456;53.584;9.968;2023-04-01T07:09:33;1.53;;;1.10;;
938;SDS011;456;53.584;9.968;2023-04-01T07:12:02;1.07;;;0.90;;
938;SDS011;456;53.584;9.968;2023-04-01T07:14:36;1.23;;;1.13;;
938;SDS011;456;53.584;9.968;2023-04-01T07:27:50;1.07;;;0.83;;
938;SDS011;456;53.584;9.968;2023-04-01T07:30:22;1.00;;;0.90;;
938;SDS011;456;53.584;9.968;2023-04-01T07:33:11;3.93;;;1.20;;
938;SDS011;456;53.584;9.968;2023-04-01T07:43:59;2.40;;;1.10;;
938;SDS011;456;53.584;9.968;2023-04-01T07:46:47;3.50;;;1.60;;
938;SDS011;456;53.584;9.968;2023-04-01T07:52:26;0.80;;;0.80;;
938;SDS011;456;53.584;9.968;2023-04-01T07:55:23;1.60;;;1.10;;
938;SDS011;456;53.584;9.968;2023-04-01T07:58:08;2.10;;;1.33;;
938;SDS011;456;53.584;9.968;2023-04-01T08:00:59;0.80;;;0.73;;
938;SDS011;456;53.584;9.968;2023-04-01T08:03:42;1.37;;;1.00;;
938;SDS011;456;53.584;9.968;2023-04-01T08:06:35;1.00;;;0.90;;
938;SDS011;456;53.584;9.968;2023-04-01T08:09:32;1.20;;;1.10;;
938;SDS011;456;53.584;9.968;2023-04-01T08:21:02;0.90;;;0.70;;
938;SDS011;456;53.584;9.968;2023-04-01T08:23:33;1.30;;;0.70;;
938;SDS011;456;53.584;9.968;2023-04-01T08:26:08;1.43;;;1.13;;
938;SDS011;456;53.584;9.968;2023-04-01T08:31:48;1.20;;;0.80;;
938;SDS011;456;53.584;9.968;2023-04-01T08:34:47;2.03;;;0.70;;
938;SDS011;456;53.584;9.968;2023-04-01T08:37:25;0.80;;;0.77;;
938;SDS011;456;53.584;9.968;2023-04-01T08:43:16;0.60;;;0.60;;
938;SDS011;456;53.584;9.968;2023-04-01T08:46:25;1.90;;;0.73;;
938;SDS011;456;53.584;9.968;2023-04-01T09:19:06;0.90;;;0.60;;
938;SDS011;456;53.584;9.968;2023-04-01T09:27:40;1.00;;;0.90;;
938;SDS011;456;53.584;9.968;2023-04-01T09:33:36;0.73;;;0.60;;
938;SDS011;456;53.584;9.968;2023-04-01T09:39:34;0.80;;;0.63;;
938;SDS011;456;53.584;9.968;2023-04-01T09:42:28;0.80;;;0.63;;
938;SDS011;456;53.584;9.968;2023-04-01T09:59:17;0.73;;;0.50;;
938;SDS011;456;53.584;9.968;2023-04-01T10:16:11;1.00;;;0.67;;
938;SDS011;456;53.584;9.968;2023-04-01T10:21:37;0.87;;;0.57;;
938;SDS011;456;53.584;9.968;2023-04-01T10:26:48;0.80;;;0.60;;
938;SDS011;456;53.584;9.968;2023-04-01T10:32:00;1.03;;;0.93;;
938;SDS011;456;53.584;9.968;2023-04-01T10:54:05;0.83;;;0.70;;
938;SDS011;456;53.584;9.968;2023-04-01T10:56:47;0.83;;;0.70;;
938;SDS011;456;53.584;9.968;2023-04-01T10:59:45;1.00;;;0.83;;
938;SDS011;456;53.584;9.968;2023-04-01T11:14:50;1.13;;;1.03;;
938;SDS011;456;53.584;9.968;2023-04-01T11:17:59;0.80;;;0.70;;
938;SDS011;456;53.584;9.968;2023-04-01T11:26:07;1.20;;;0.97;;
938;SDS011;456;53.584;9.968;2023-04-01T11:36:55;1.67;;;1.10;;
938;SDS011;456;53.584;9.968;2023-04-01T11:39:46;1.00;;;0.77;;
938;SDS011;456;53.584;9.968;2023-04-01T11:45:15;1.43;;;0.70;;
938;SDS011;456;53.584;9.968;2023-04-01T11:59:22;0.83;;;0.80;;
938;SDS011;456;53.584;9.968;2023-04-01T12:04:34;0.90;;;0.70;;
938;SDS011;456;53.584;9.968;2023-04-01T12:08:08;0.93;;;0.73;;
938;SDS011;456;53.584;9.968;2023-04-01T12:15:59;1.03;;;0.80;;
938;SDS011;456;53.584;9.968;2023-04-01T12:18:33;0.80;;;0.73;;
938;SDS011;456;53.584;9.968;2023-04-01T12:21:27;1.73;;;0.73;;
938;SDS011;456;53.584;9.968;2023-04-01T12:29:21;1.73;;;0.77;;
938;SDS011;456;53.584;9.968;2023-04-01T12:46:12;1.27;;;0.80;;
938;SDS011;456;53.584;9.968;2023-04-01T12:57:36;0.77;;;0.70;;
938;SDS011;456;53.584;9.968;2023-04-01T13:11:20;1.33;;;0.70;;
938;SDS011;456;53.584;9.968;2023-04-01T13:13:39;2.30;;;0.80;;
938;SDS011;456;53.584;9.968;2023-04-01T13:16:24;1.00;;;0.80;;
938;SDS011;456;53.584;9.968;2023-04-01T13:24:06;1.80;;;1.00;;
938;SDS011;456;53.584;9.968;2023-04-01T13:27:01;3.37;;;0.80;;
938;SDS011;456;53.584;9.968;2023-04-01T13:29:28;2.40;;;1.00;;
938;SDS011;456;53.584;9.968;2023-04-01T13:56:48;1.87;;;0.70;;
938;SDS011;456;53.584;9.968;2023-04-01T13:59:48;2.20;;;1.17;;
938;SDS011;456;53.584;9.968;2023-04-01T14:11:25;5.83;;;3.37;;
938;SDS011;456;53.584;9.968;2023-04-01T14:13:46;7.20;;;2.97;;
938;SDS011;456;53.584;9.968;2023-04-01T14:19:22;10.70;;;5.13;;
938;SDS011;456;53.584;9.968;2023-04-01T14:25:23;7.60;;;4.87;;
938;SDS011;456;53.584;9.968;2023-04-01T14:45:17;12.87;;;7.70;;
938;SDS011;456;53.584;9.968;2023-04-01T14:48:17;21.17;;;6.60;;
938;SDS011;456;53.584;9.968;2023-04-01T14:50:51;14.00;;;7.60;;
938;SDS011;456;53.584;9.968;2023-04-01T15:28:24;9.93;;;4.63;;
938;SDS011;456;53.584;9.968;2023-04-01T15:31:08;8.23;;;4.80;;
938;SDS011;456;53.584;9.968;2023-04-01T15:38:52;7.00;;;4.90;;
938;SDS011;456;53.584;9.968;2023-04-01T15:41:35;9.43;;;5.10;;
938;SDS011;456;53.584;9.968;2023-04-01T15:45:08;8.07;;;4.20;;
938;SDS011;456;53.584;9.968;2023-04-01T15:49:50;4.27;;;3.87;;
938;SDS011;456;53.584;9.968;2023-04-01T15:52:42;6.20;;;3.90;;
938;SDS011;456;53.584;9.968;2023-04-01T16:00:49;4.87;;;3.07;;
938;SDS011;456;53.584;9.968;2023-04-01T16:12:01;4.20;;;3.27;;
938;SDS011;456;53.584;9.968;2023-04-01T16:14:34;5.23;;;2.87;;
938;SDS011;456;53.584;9.968;2023-04-01T16:22:37;5.70;;;3.57;;
938;SDS011;456;53.584;9.968;2023-04-01T16:30:35;7.27;;;3.53;;
938;SDS011;456;53.584;9.968;2023-04-01T16:33:12;4.67;;;3.93;;
938;SDS011;456;53.584;9.968;2023-04-01T16:38:52;4.60;;;3.40;;
938;SDS011;456;53.584;9.968;2023-04-01T16:41:27;7.37;;;3.60;;
938;SDS011;456;53.584;9.968;2023-04-01T16:46:54;6.73;;;3.67;;
938;SDS011;456;53.584;9.968;2023-04-01T16:49:25;9.23;;;3.60;;
938;SDS011;456;53.584;9.968;2023-04-01T16:57:49;6.30;;;3.70;;
938;SDS011;456;53.584;9.968;2023-04-01T17:05:36;5.60;;;4.07;;
938;SDS011;456;53.584;9.968;2023-04-01T17:08:26;9.57;;;3.40;;
938;SDS011;456;53.584;9.968;2023-04-01T17:11:13;5.00;;;3.80;;
938;SDS011;456;53.584;9.968;2023-04-01T17:13:46;5.83;;;3.30;;
938;SDS011;456;53.584;9.968;2023-04-01T17:24:49;4.77;;;3.30;;
938;SDS011;456;53.584;9.968;2023-04-01T17:35:31;5.87;;;2.97;;
938;SDS011;456;53.584;9.968;2023-04-01T18:08:28;4.50;;;2.83;;
938;SDS011;456;53.584;9.968;2023-04-01T18:11:00;4.03;;;3.10;;
938;SDS011;456;53.584;9.968;2023-04-01T18:16:35;4.10;;;2.53;;
938;SDS011;456;53.584;9.968;2023-04-01T18:25:30;3.93;;;2.87;;
938;SDS011;456;53.584;9.968;2023-04-01T18:34:00;3.83;;;3.00;;
938;SDS011;456;53.584;9.968;2023-04-01T18:36:44;2.50;;;2.27;;
938;SDS011;456;53.584;9.968;2023-04-01T18:39:41;5.63;;;2.60;;
938;SDS011;456;53.584;9.968;2023-04-01T18:45:28;2.50;;;2.03;;
938;SDS011;456;53.584;9.968;2023-04-01T18:53:25;2.90;;;2.37;;
938;SDS011;456;53.584;9.968;2023-04-01T18:56:05;3.70;;;2.50;;
938;SDS011;456;53.584;9.968;2023-04-01T19:01:45;3.90;;;2.67;;
938;SDS011;456;53.584;9.968;2023-04-01T19:04:21;3.20;;;2.40;;
938;SDS011;456;53.584;9.968;2023-04-01T19:06:57;6.20;;;2.83;;
938;SDS011;456;53.584;9.968;2023-04-01T19:09:26;2.37;;;2.17;;
938;SDS011;456;53.584;9.968;2023-04-01T19:21:17;3.20;;;2.60;;
938;SDS011;456;53.584;9.968;2023-04-01T19:24:17;2.60;;;2.40;;
938;SDS011;456;53.584;9.968;2023-04-01T19:27:11;3.63;;;3.00;;
938;SDS011;456;53.584;9.968;2023-04-01T19:30:11;2.53;;;2.33;;
938;SDS011;456;53.584;9.968;2023-04-01T19:35:29;2.60;;;2.40;;
938;SDS011;456;53.584;9.968;2023-04-01T19:40:42;2.77;;;2.57;;
938;SDS011;456;53.584;9.968;2023-04-01T19:46:04;3.37;;;2.27;;
938;SDS011;456;53.584;9.968;2023-04-01T19:54:11;2.43;;;2.20;;
938;SDS011;456;53.584;9.968;2023-04-01T19:56:39;2.70;;;2.50;;
938;SDS011;456;53.584;9.968;2023-04-01T20:04:29;3.30;;;2.67;;
938;SDS011;456;53.584;9.968;2023-04-01T20:07:09;3.00;;;2.80;;
938;SDS011;456;53.584;9.968;2023-04-01T20:12:46;2.87;;;2.67;;
938;SDS011;456;53.584;9.968;2023-04-01T20:15:28;2.93;;;2.73;;
938;SDS011;456;53.584;9.968;2023-04-01T20:17:58;3.43;;;3.13;;
938;SDS011;456;53.584;9.968;2023-04-01T20:20:28;2.30;;;2.10;;
938;SDS011;456;53.584;9.968;2023-04-01T20:23:17;2.50;;;2.30;;
938;SDS011;456;53.584;9.968;2023-04-01T20:25:57;2.57;;;2.37;;
938;SDS011;456;53.584;9.968;2023-04-01T20:28:32;3.50;;;2.60;;
938;SDS011;456;53.584;9.968;2023-04-01T20:37:14;3.97;;;2.50;;
938;SDS011;456;53.584;9.968;2023-04-01T20:50:52;2.80;;;2.60;;
938;SDS011;456;53.584;9.968;2023-04-01T20:53:40;2.77;;;2.50;;
938;SDS011;456;53.584;9.968;2023-04-01T21:09:51;2.70;;;2.50;;
938;SDS011;456;53.584;9.968;2023-04-01T21:15:16;2.50;;;2.30;;
938;SDS011;456;53.584;9.968;2023-04-01T21:21:00;2.57;;;2.37;;
938;SDS011;456;53.584;9.968;2023-04-01T21:37:27;3.90;;;2.80;;
938;SDS011;456;53.584;9.968;2023-04-01T21:40:24;2.90;;;2.70;;
938;SDS011;456;53.584;9.968;2023-04-01T21:51:54;2.90;;;2.60;;
938;SDS011;456;53.584;9.968;2023-04-01T21:54:49;2.63;;;2.43;;
938;SDS011;456;53.584;9.968;2023-04-01T22:00:06;3.27;;;3.00;;
938;SDS011;456;53.584;9.968;2023-04-01T22:05:56;3.53;;;3.13;;
938;SDS011;456;53.584;9.968;2023-04-01T22:08:40;3.13;;;2.83;;
938;SDS011;456;53.584;9.968;2023-04-01T22:13:49;3.07;;;2.80;;
938;SDS011;456;53.584;9.968;2023-04-01T22:22:24;3.10;;;2.57;;
938;SDS011;456;53.584;9.968;2023-04-01T22:25:40;2.70;;;2.50;;
938;SDS011;456;53.584;9.968;2023-04-01T22:28:07;2.60;;;2.00;;
938;SDS011;456;53.584;9.968;2023-04-01T22:30:46;2.10;;;1.90;;
938;SDS011;456;53.584;9.968;2023-04-01T22:33:26;2.50;;;2.30;;
938;SDS011;456;53.584;9.968;2023-04-01T22:47:17;5.97;;;2.70;;
938;SDS011;456;53.584;9.968;2023-04-01T22:49:58;3.50;;;2.90;;
938;SDS011;456;53.584;9.968;2023-04-01T22:55:08;3.27;;;2.97;;
938;SDS011;456;53.584;9.968;2023-04-01T22:57:53;2.93;;;2.70;;
938;SDS011;456;53.584;9.968;2023-04-01T23:03:06;3.30;;;3.00;;
938;SDS011;456;53.584;9.968;2023-04-01T23:05:57;3.93;;;2.70;;
938;SDS011;456;53.584;9.968;2023-04-01T23:10:59;3.33;;;2.93;;
938;SDS011;456;53.584;9.968;2023-04-01T23:13:29;2.97;;;2.67;;
938;SDS011;456;53.584;9.968;2023-04-01T23:16:00;3.10;;;2.90;;
938;SDS011;456;53.584;9.968;2023-04-01T23:21:03;2.90;;;2.70;;
938;SDS011;456;53.584;9.968;2023-04-01T23:24:01;4.20;;;3.00;;
938;SDS011;456;53.584;9.968;2023-04-01T23:26:52;3.27;;;2.60;;
938;SDS011;456;53.584;9.968;2023-04-01T23:29:26;3.57;;;2.70;;
938;SDS011;456;53.584;9.968;2023-04-01T23:31:59;2.60;;;2.40;;
938;SDS011;456;53.584;9.968;2023-04-01T23:34:27;2.60;;;2.40;;
938;SDS011;456;53.584;9.968;2023-04-01T23:37:04;2.53;;;2.20;;
938;SDS011;456;53.584;9.968;2023-04-01T23:39:41;2.60;;;2.30;;
938;SDS011;456;53.584;9.968;2023-04-01T23:44:48;2.10;;;1.60;;
938;SDS011;456;53.584;9.968;2023-04-01T23:47:17;2.00;;;1.80;;
938;SDS011;456;53.584;9.968;2023-04-01T23:49:50;2.07;;;1.67;;
938;SDS011;456;53.584;9.968;2023-04-01T23:52:39;2.00;;;1.80;;
938;SDS011;456;53.584;9.968;2023-04-01T23:57:43;3.40;;;1.90;;
